This is the latest recevied weather packets stored in our database for station/object JH0KSP-13. If no packets are shown the sender has not sent any weather packets the latest 1 day(s).
| Time | Temp. | Humidity | Pressure | Rain* | Wind** | Luminosity | Snow |
|---|---|---|---|---|---|---|---|
| 1778007009 | 10° C | 96% | 1023.1 hPa | 0 mm | 0 m/s | - | - |
| 1778006815 | 10° C | 96% | 1023.1 hPa | 0 mm | 0.45 m/s, 82° | - | - |
| 1778005615 | 10° C | 96% | 1023.1 hPa | 0 mm | 0 m/s | - | - |
| 1778004416 | 10° C | 95% | 1023.1 hPa | 0 mm | 0 m/s | - | - |
| 1778003217 | 10° C | 95% | 1023.1 hPa | 0 mm | 0.45 m/s, 48° | - | - |
| 1778002017 | 10° C | 94% | 1023.1 hPa | 0 mm | 0 m/s | - | - |
| 1778000815 | 10° C | 92% | 1023 hPa | 0 mm | 0 m/s | - | - |
| 1777999616 | 11.11° C | 90% | 1023 hPa | 0 mm | 0 m/s | - | - |
| 1777998416 | 11.11° C | 87% | 1023.3 hPa | 0 mm | 0.89 m/s, 236° | - | - |
| 1777997217 | 11.11° C | 90% | 1023.3 hPa | 0 mm | 1.34 m/s, 283° | - | - |
| 1777996015 | 11.11° C | 90% | 1023.3 hPa | 0 mm | 0 m/s | - | - |
| 1777994816 | 11.11° C | 88% | 1023.5 hPa | 0 mm | 0.89 m/s, 288° | - | - |
| 1777993617 | 12.22° C | 88% | 1023.6 hPa | 0 mm | 0.45 m/s, 243° | - | - |
| 1777992415 | 12.22° C | 86% | 1023.6 hPa | 0 mm | 0.45 m/s, 300° | - | - |
| 1777991215 | 12.22° C | 83% | 1023.9 hPa | 0 mm | 1.34 m/s, 280° | - | - |
| 1777990208 | 12.22° C | 83% | 1023.7 hPa | 0 mm | 1.79 m/s, 249° | - | - |
| 1777990017 | 12.22° C | 83% | 1023.6 hPa | 0 mm | 0.89 m/s, 252° | - | - |
| 1777988816 | 12.22° C | 83% | 1023.5 hPa | 0 mm | 2.68 m/s, 270° | - | - |
| 1777988408 | 12.22° C | 83% | 1023.5 hPa | 0 mm | 1.79 m/s, 345° | - | - |
| 1777987616 | 12.22° C | 83% | 1023.5 hPa | 0 mm | 1.79 m/s, 277° | - | - |
| 1777987208 | 12.22° C | 83% | 1023.4 hPa | 0 mm | 2.24 m/s, 262° | - | - |
| 1777986608 | 12.22° C | 84% | 1023.3 hPa | 0 mm | 1.34 m/s, 293° | - | - |
| 1777986417 | 12.22° C | 84% | 1023.3 hPa | 0 mm | 0 m/s | - | - |
| 1777985216 | 12.22° C | 84% | 1023.2 hPa | 0 mm | 1.34 m/s, 270° | - | - |
| 1777984208 | 12.22° C | 82% | 1023.1 hPa | 0 mm | 1.79 m/s, 295° | - | - |
* Rain latest hour (hover to see other rain measurements)
** Current wind speed in m/s (hover to see current wind gust speed)